createdAt,value
2023-05-05T00:00:25.913Z,54.66
2023-05-05T00:01:25.931Z,56.22
2023-05-05T00:02:25.992Z,56.71
2023-05-05T00:03:26.090Z,58.28
2023-05-05T00:04:26.049Z,59.73
2023-05-05T00:05:26.083Z,57.81
2023-05-05T00:06:26.123Z,58.13
2023-05-05T00:07:26.163Z,58.14
2023-05-05T00:08:26.234Z,58.47
2023-05-05T00:09:26.257Z,57.59
2023-05-05T00:10:26.288Z,57.30
2023-05-05T00:11:26.349Z,60.17
2023-05-05T00:12:26.356Z,60.45
2023-05-05T00:13:26.390Z,59.92
2023-05-05T00:14:26.463Z,62.11
2023-05-05T00:15:26.498Z,61.27
2023-05-05T00:16:26.571Z,62.77
2023-05-05T00:17:26.570Z,62.23
2023-05-05T00:18:26.586Z,63.64
2023-05-05T00:19:26.636Z,62.95
2023-05-05T00:20:26.706Z,60.69
2023-05-05T00:21:26.714Z,60.71
2023-05-05T00:22:26.788Z,60.04
2023-05-05T00:23:26.796Z,61.01
2023-05-05T00:24:26.846Z,58.83
2023-05-05T00:25:26.869Z,57.99
2023-05-05T00:26:26.924Z,58.02
2023-05-05T00:27:26.934Z,56.42
2023-05-05T00:28:27.003Z,57.14
2023-05-05T00:29:27.010Z,59.05
2023-05-05T00:30:27.079Z,58.99
2023-05-05T00:31:27.208Z,58.73
2023-05-05T00:32:27.199Z,60.73
2023-05-05T00:33:27.190Z,58.73
2023-05-05T00:34:27.267Z,57.00
2023-05-05T00:35:27.309Z,59.66
2023-05-05T00:36:27.359Z,58.32
2023-05-05T00:37:27.353Z,55.87
2023-05-05T00:38:27.414Z,56.83
2023-05-05T00:39:27.467Z,56.12
2023-05-05T00:40:27.544Z,56.94
2023-05-05T00:41:27.531Z,53.81
2023-05-05T00:42:27.605Z,53.63
2023-05-05T00:43:27.654Z,55.14
2023-05-05T00:44:27.671Z,56.54
2023-05-05T00:45:27.706Z,56.17
2023-05-05T00:46:27.906Z,54.92
2023-05-05T00:47:27.864Z,55.11
2023-05-05T00:48:27.844Z,55.47
2023-05-05T00:49:27.968Z,55.34
2023-05-05T00:50:27.962Z,55.30
2023-05-05T00:51:28.000Z,54.05
2023-05-05T00:52:28.035Z,54.05
2023-05-05T00:53:28.083Z,54.56
2023-05-05T00:54:28.157Z,54.99
2023-05-05T00:55:28.199Z,57.34
2023-05-05T00:56:28.238Z,57.19
2023-05-05T00:57:28.314Z,59.12
2023-05-05T00:58:28.350Z,58.19
2023-05-05T00:59:28.439Z,59.64
2023-05-05T01:00:28.450Z,59.44
2023-05-05T01:01:28.570Z,60.77
2023-05-05T01:02:28.649Z,62.14
2023-05-05T01:03:28.733Z,61.98
2023-05-05T01:04:28.673Z,61.79
2023-05-05T01:05:28.738Z,61.56
2023-05-05T01:06:28.779Z,60.38
2023-05-05T01:07:28.825Z,59.10
2023-05-05T01:08:28.885Z,59.87
2023-05-05T01:09:28.984Z,61.24
2023-05-05T01:10:28.983Z,62.96
2023-05-05T01:11:29.059Z,61.62
2023-05-05T01:12:29.107Z,59.78
2023-05-05T01:13:29.158Z,59.72
2023-05-05T01:14:29.194Z,59.40
2023-05-05T01:15:29.221Z,59.39
2023-05-05T01:16:29.380Z,56.86
2023-05-05T01:17:29.363Z,56.13
2023-05-05T01:18:29.392Z,57.18
2023-05-05T01:19:29.460Z,57.80
2023-05-05T01:20:29.508Z,57.43
2023-05-05T01:21:29.566Z,56.60
2023-05-05T01:22:29.593Z,56.19
2023-05-05T01:23:29.633Z,57.09
2023-05-05T01:24:29.663Z,56.95
2023-05-05T01:25:29.708Z,58.13
2023-05-05T01:26:29.758Z,56.66
2023-05-05T01:27:29.771Z,58.23
2023-05-05T01:28:29.768Z,57.48
2023-05-05T01:29:29.838Z,58.95
2023-05-05T01:30:29.854Z,57.90
2023-05-05T01:31:29.946Z,55.40
2023-05-05T01:32:30.004Z,56.91
2023-05-05T01:33:29.983Z,56.43
2023-05-05T01:34:30.079Z,56.69
2023-05-05T01:35:30.120Z,55.94
2023-05-05T01:36:30.113Z,57.00
2023-05-05T01:37:30.136Z,57.49
2023-05-05T01:38:30.146Z,57.33
2023-05-05T01:39:30.254Z,59.01
2023-05-05T01:40:30.254Z,58.03
2023-05-05T01:41:30.300Z,57.63
2023-05-05T01:42:30.340Z,57.78
2023-05-05T01:43:30.352Z,59.13
2023-05-05T01:44:30.428Z,59.23
2023-05-05T01:45:30.502Z,57.90
2023-05-05T01:46:30.493Z,56.53
2023-05-05T01:47:30.559Z,55.21
2023-05-05T01:48:30.568Z,57.06
2023-05-05T01:49:30.547Z,56.20
2023-05-05T01:50:30.596Z,56.49
2023-05-05T01:51:30.622Z,55.21
2023-05-05T01:52:30.586Z,53.63
2023-05-05T01:53:30.631Z,54.33
2023-05-05T01:54:30.620Z,54.51
2023-05-05T01:55:30.664Z,54.24
2023-05-05T01:56:30.741Z,53.96
2023-05-05T01:57:30.685Z,54.32
2023-05-05T01:58:30.676Z,54.63
2023-05-05T01:59:30.677Z,54.68
2023-05-05T02:00:30.738Z,55.60
2023-05-05T02:01:30.758Z,56.59
2023-05-05T02:02:30.787Z,57.50
2023-05-05T02:03:30.786Z,56.21
2023-05-05T02:04:30.717Z,56.28
2023-05-05T02:05:30.742Z,57.56
2023-05-05T02:06:30.767Z,58.49
2023-05-05T02:07:30.729Z,59.96
2023-05-05T02:08:30.756Z,59.68
2023-05-05T02:09:30.769Z,58.65
2023-05-05T02:10:30.758Z,59.13
2023-05-05T02:11:30.773Z,57.60
2023-05-05T02:12:30.846Z,58.61
2023-05-05T02:13:30.782Z,58.25
2023-05-05T02:14:30.812Z,55.63
2023-05-05T02:15:30.865Z,56.29
2023-05-05T02:16:30.802Z,56.69
2023-05-05T02:17:30.862Z,57.06
2023-05-05T02:18:30.822Z,57.21
2023-05-05T02:19:30.826Z,57.50
2023-05-05T02:20:30.907Z,57.61
2023-05-05T02:21:30.868Z,57.04
2023-05-05T02:22:30.860Z,57.33
2023-05-05T02:23:30.915Z,58.59
2023-05-05T02:24:31.016Z,60.05
2023-05-05T02:25:30.875Z,60.12
2023-05-05T02:26:30.884Z,60.46
2023-05-05T02:27:30.877Z,60.71
2023-05-05T02:28:30.837Z,60.75
2023-05-05T02:29:30.868Z,61.56
2023-05-05T02:30:30.838Z,61.10
2023-05-05T02:31:30.907Z,61.22
2023-05-05T02:32:30.845Z,61.22
2023-05-05T02:33:30.816Z,60.95
2023-05-05T02:34:30.824Z,62.43
2023-05-05T02:35:31.504Z,61.86
2023-05-05T02:36:30.791Z,61.93
2023-05-05T02:37:30.787Z,62.54
2023-05-05T02:38:30.804Z,62.50
2023-05-05T02:39:30.780Z,64.56
2023-05-05T02:40:30.800Z,63.35
2023-05-05T02:41:30.837Z,64.04
2023-05-05T02:42:30.814Z,64.91
2023-05-05T02:43:30.817Z,65.49
2023-05-05T02:44:30.853Z,66.89
2023-05-05T02:45:30.893Z,66.04
2023-05-05T02:46:30.917Z,65.91
2023-05-05T02:47:30.954Z,66.08
2023-05-05T02:48:30.898Z,66.58
2023-05-05T02:49:30.905Z,64.63
2023-05-05T02:50:30.945Z,64.10
2023-05-05T02:51:30.932Z,64.29
2023-05-05T02:52:30.918Z,64.44
2023-05-05T02:53:30.925Z,64.46
2023-05-05T02:54:30.965Z,63.26
2023-05-05T02:55:30.960Z,63.55
2023-05-05T02:56:30.967Z,64.53
2023-05-05T02:57:31.003Z,63.22
2023-05-05T02:58:31.035Z,62.93
2023-05-05T02:59:31.021Z,62.12
2023-05-05T03:00:31.078Z,62.24
2023-05-05T03:01:31.073Z,64.82
2023-05-05T03:02:31.189Z,63.35
2023-05-05T03:03:31.082Z,64.71
2023-05-05T03:04:31.057Z,67.06
2023-05-05T03:05:31.094Z,67.19
2023-05-05T03:06:31.144Z,66.65
2023-05-05T03:07:31.100Z,67.21
2023-05-05T03:08:31.098Z,67.23
2023-05-05T03:09:31.114Z,68.43
2023-05-05T03:10:31.157Z,68.11
2023-05-05T03:11:31.146Z,68.95
2023-05-05T03:12:31.183Z,68.33
2023-05-05T03:13:31.154Z,68.51
2023-05-05T03:14:33.297Z,67.90
2023-05-05T03:15:31.199Z,70.36
2023-05-05T03:16:31.169Z,70.85
2023-05-05T03:17:31.203Z,71.44
2023-05-05T03:18:31.215Z,71.07
2023-05-05T03:19:31.234Z,70.01
2023-05-05T03:20:31.252Z,70.65
2023-05-05T03:21:31.245Z,71.16
2023-05-05T03:22:31.275Z,70.23
2023-05-05T03:23:31.268Z,69.48
2023-05-05T03:24:31.325Z,70.58
2023-05-05T03:25:32.105Z,71.94
2023-05-05T03:26:31.317Z,73.19
2023-05-05T03:27:31.364Z,73.12
2023-05-05T03:28:31.329Z,72.59
2023-05-05T03:29:31.369Z,72.45
2023-05-05T03:30:31.371Z,73.14
2023-05-05T03:31:31.408Z,72.38
2023-05-05T03:32:31.411Z,70.76
2023-05-05T03:33:31.414Z,70.78
2023-05-05T03:34:31.417Z,70.65
2023-05-05T03:35:31.413Z,69.85
2023-05-05T03:36:31.436Z,70.01
2023-05-05T03:37:31.437Z,69.51
2023-05-05T03:38:31.416Z,69.62
2023-05-05T03:39:31.455Z,69.80
2023-05-05T03:40:43.030Z,72.02
2023-05-05T03:41:32.462Z,72.12
2023-05-05T03:42:31.477Z,72.34
2023-05-05T03:43:31.451Z,72.66
2023-05-05T03:44:31.465Z,72.39
2023-05-05T03:45:31.474Z,73.32
2023-05-05T03:46:31.438Z,71.43
2023-05-05T03:47:31.472Z,71.08
2023-05-05T03:48:31.417Z,71.04
2023-05-05T03:49:31.433Z,70.88
2023-05-05T03:50:31.413Z,71.12
2023-05-05T03:51:31.444Z,71.78
2023-05-05T03:52:31.375Z,72.22
2023-05-05T03:53:31.371Z,72.72
2023-05-05T03:54:31.373Z,72.40
2023-05-05T03:55:31.384Z,74.12
2023-05-05T03:56:31.391Z,74.79
2023-05-05T03:57:31.369Z,74.22
2023-05-05T03:58:31.344Z,75.64
2023-05-05T03:59:31.334Z,74.80
2023-05-05T04:00:31.335Z,76.27
2023-05-05T04:01:31.324Z,76.24
2023-05-05T04:02:31.411Z,76.87
2023-05-05T04:03:31.565Z,76.58
2023-05-05T04:04:31.402Z,78.77
2023-05-05T04:05:31.304Z,77.65
2023-05-05T04:06:31.285Z,76.06
2023-05-05T04:07:31.271Z,77.17
2023-05-05T04:08:31.286Z,75.84
2023-05-05T04:09:31.323Z,76.08
2023-05-05T04:10:31.354Z,75.09
2023-05-05T04:11:31.365Z,77.13
2023-05-05T04:12:31.378Z,76.57
2023-05-05T04:13:31.343Z,76.39
2023-05-05T04:14:31.330Z,77.91
2023-05-05T04:15:31.385Z,77.68
2023-05-05T04:16:31.406Z,77.16
2023-05-05T04:17:31.417Z,77.15
2023-05-05T04:18:31.419Z,77.37
2023-05-05T04:19:31.435Z,78.78
2023-05-05T04:20:31.466Z,77.62
2023-05-05T04:21:31.437Z,77.08
2023-05-05T04:22:31.450Z,78.58
2023-05-05T04:23:31.469Z,79.39
2023-05-05T04:24:31.465Z,80.05
2023-05-05T04:25:31.514Z,79.55
2023-05-05T04:26:33.067Z,80.59
2023-05-05T04:27:31.504Z,79.87
2023-05-05T04:28:31.497Z,81.32
2023-05-05T04:29:31.542Z,79.23
2023-05-05T04:30:31.519Z,78.70
2023-05-05T04:31:31.589Z,80.35
2023-05-05T04:32:31.575Z,79.08
2023-05-05T04:33:31.539Z,79.78
2023-05-05T04:34:31.554Z,79.70
2023-05-05T04:35:31.554Z,80.26
2023-05-05T04:36:31.607Z,78.91
2023-05-05T04:37:31.583Z,80.39
2023-05-05T04:38:31.659Z,79.25
2023-05-05T04:39:31.642Z,79.00
2023-05-05T04:40:31.632Z,79.99
2023-05-05T04:41:31.663Z,78.82
2023-05-05T04:42:31.668Z,78.81
2023-05-05T04:43:31.669Z,79.41
2023-05-05T04:44:31.733Z,78.67
2023-05-05T04:45:31.733Z,78.45
2023-05-05T04:46:31.783Z,78.41
2023-05-05T04:47:31.845Z,78.03
2023-05-05T04:48:31.792Z,77.31
2023-05-05T04:49:31.776Z,76.88
2023-05-05T04:50:31.776Z,76.97
2023-05-05T04:51:31.835Z,78.40
2023-05-05T04:52:31.826Z,78.04
2023-05-05T04:53:31.807Z,80.25
2023-05-05T04:54:31.841Z,79.16
2023-05-05T04:55:31.833Z,80.52
2023-05-05T04:56:31.889Z,82.55
2023-05-05T04:57:31.893Z,82.36
2023-05-05T04:58:31.876Z,82.51
2023-05-05T04:59:31.858Z,82.16
2023-05-05T05:00:31.881Z,83.56
2023-05-05T05:01:31.929Z,82.45
2023-05-05T05:02:31.962Z,82.24
2023-05-05T05:03:32.143Z,83.03
2023-05-05T05:04:31.912Z,82.18
2023-05-05T05:05:31.958Z,83.01
2023-05-05T05:06:31.969Z,82.71
2023-05-05T05:07:31.967Z,82.98
2023-05-05T05:08:31.956Z,82.60
2023-05-05T05:09:31.998Z,83.01
2023-05-05T05:10:31.986Z,82.46
2023-05-05T05:11:32.019Z,82.13
2023-05-05T05:12:32.097Z,83.19
2023-05-05T05:13:32.039Z,83.40
2023-05-05T05:14:32.017Z,83.38
2023-05-05T05:15:32.049Z,84.12
2023-05-05T05:16:32.062Z,85.42
2023-05-05T05:17:32.090Z,84.80
2023-05-05T05:18:32.060Z,85.52
2023-05-05T05:19:32.072Z,85.44
2023-05-05T05:20:32.060Z,86.82
2023-05-05T05:21:32.056Z,86.84
2023-05-05T05:22:32.074Z,84.89
2023-05-05T05:23:32.092Z,85.20
2023-05-05T05:24:32.083Z,86.99
2023-05-05T05:25:32.106Z,86.32
2023-05-05T05:26:32.144Z,88.04
2023-05-05T05:27:33.055Z,84.30
2023-05-05T05:28:32.154Z,86.77
2023-05-05T05:29:32.152Z,86.48
2023-05-05T05:30:32.154Z,86.62
2023-05-05T05:31:32.174Z,87.04
2023-05-05T05:32:33.179Z,86.76
2023-05-05T05:33:32.210Z,86.96
2023-05-05T05:34:32.194Z,87.72
2023-05-05T05:35:32.200Z,87.90
2023-05-05T05:36:32.551Z,87.85
2023-05-05T05:37:32.281Z,89.03
2023-05-05T05:38:32.295Z,94.84
2023-05-05T05:39:32.268Z,98.19
2023-05-05T05:40:32.320Z,100.57
2023-05-05T05:41:32.376Z,108.71
2023-05-05T05:42:32.309Z,118.68
2023-05-05T05:43:32.312Z,113.58
2023-05-05T05:44:32.356Z,110.85
2023-05-05T05:45:32.410Z,113.15
2023-05-05T05:46:32.482Z,116.09
2023-05-05T05:47:32.525Z,117.16
2023-05-05T05:48:32.523Z,119.60
2023-05-05T05:49:32.590Z,121.86
2023-05-05T05:50:32.620Z,124.06
2023-05-05T05:51:32.682Z,132.30
2023-05-05T05:52:32.697Z,131.83
2023-05-05T05:53:32.767Z,134.30
2023-05-05T05:54:32.773Z,136.19
2023-05-05T05:55:32.893Z,139.01
2023-05-05T05:56:32.858Z,138.20
2023-05-05T05:57:32.916Z,138.06
2023-05-05T05:58:32.964Z,136.01
2023-05-05T05:59:32.989Z,135.88
2023-05-05T06:00:33.012Z,133.08
2023-05-05T06:01:33.088Z,135.21
2023-05-05T06:02:33.250Z,135.98
2023-05-05T06:03:33.343Z,137.86
2023-05-05T06:04:33.363Z,138.49
2023-05-05T06:05:33.268Z,137.81
2023-05-05T06:06:33.377Z,138.37
2023-05-05T06:07:33.385Z,137.99
2023-05-05T06:08:33.445Z,138.46
2023-05-05T06:09:33.496Z,138.14
2023-05-05T06:10:34.007Z,139.11
2023-05-05T06:11:33.661Z,137.71
2023-05-05T06:12:33.715Z,138.17
2023-05-05T06:13:33.697Z,139.35
2023-05-05T06:14:33.759Z,139.24
2023-05-05T06:15:33.810Z,138.75
2023-05-05T06:16:33.990Z,135.96
2023-05-05T06:17:33.931Z,133.82
2023-05-05T06:18:34.040Z,134.07
2023-05-05T06:19:34.066Z,134.47
2023-05-05T06:20:34.092Z,133.44
2023-05-05T06:21:34.156Z,134.03
2023-05-05T06:22:34.204Z,135.68
2023-05-05T06:23:34.264Z,134.56
2023-05-05T06:24:34.289Z,134.49
2023-05-05T06:25:34.327Z,135.27
2023-05-05T06:26:34.572Z,134.62
2023-05-05T06:27:34.454Z,132.16
2023-05-05T06:28:34.461Z,132.13
2023-05-05T06:29:34.506Z,132.66
2023-05-05T06:30:34.571Z,130.37
2023-05-05T06:31:34.693Z,128.12
2023-05-05T06:32:34.656Z,125.86
2023-05-05T06:33:34.674Z,127.45
2023-05-05T06:34:34.725Z,124.26
2023-05-05T06:35:34.770Z,120.94
2023-05-05T06:36:34.837Z,119.84
2023-05-05T06:37:34.777Z,118.96
2023-05-05T06:38:34.792Z,118.16
2023-05-05T06:39:34.795Z,118.77
2023-05-05T06:40:34.813Z,117.00
2023-05-05T06:41:34.857Z,114.92
2023-05-05T06:42:34.853Z,116.40
2023-05-05T06:43:34.845Z,113.95
2023-05-05T06:44:34.856Z,112.23
2023-05-05T06:45:34.921Z,112.58
2023-05-05T06:46:34.945Z,111.26
2023-05-05T06:47:34.952Z,109.02
2023-05-05T06:48:34.934Z,114.69
2023-05-05T06:49:34.896Z,116.29
2023-05-05T06:50:35.092Z,114.66
2023-05-05T06:51:34.993Z,116.01
2023-05-05T06:52:34.942Z,118.93
2023-05-05T06:53:34.990Z,120.73
2023-05-05T06:54:35.067Z,127.65
2023-05-05T06:55:35.106Z,126.19
2023-05-05T06:56:35.194Z,125.29
2023-05-05T06:57:35.205Z,127.40
2023-05-05T06:58:35.230Z,128.53
2023-05-05T06:59:35.286Z,128.72
2023-05-05T07:00:35.351Z,128.46
2023-05-05T07:01:35.344Z,130.34
2023-05-05T07:02:35.438Z,137.50
2023-05-05T07:03:35.457Z,131.71
2023-05-05T07:04:35.428Z,122.99
2023-05-05T07:05:35.472Z,116.05
2023-05-05T07:06:35.678Z,97.43
2023-05-05T07:07:35.512Z,85.20
2023-05-05T07:08:35.520Z,72.25
2023-05-05T07:09:35.548Z,68.34
2023-05-05T07:10:35.605Z,60.90
2023-05-05T07:11:35.633Z,39.79
2023-05-05T07:12:35.684Z,40.76
2023-05-05T07:13:35.725Z,34.97
2023-05-05T07:14:35.721Z,36.02
2023-05-05T07:15:35.783Z,40.24
2023-05-05T07:16:35.846Z,39.69
2023-05-05T07:17:35.818Z,35.96
2023-05-05T07:18:35.864Z,36.05
2023-05-05T07:19:35.853Z,28.97
2023-05-05T07:20:35.932Z,25.73
2023-05-05T07:21:35.931Z,22.81
2023-05-05T07:22:36.058Z,30.65
2023-05-05T07:23:35.988Z,26.01
2023-05-05T07:24:36.066Z,26.98
2023-05-05T07:25:36.046Z,29.84
2023-05-05T07:26:36.121Z,26.76
2023-05-05T07:27:36.136Z,33.16
2023-05-05T07:28:36.169Z,33.94
2023-05-05T07:29:36.243Z,20.70
2023-05-05T07:30:36.205Z,29.11
2023-05-05T07:31:36.318Z,27.80
2023-05-05T07:32:36.262Z,27.61
2023-05-05T07:33:36.280Z,30.96
2023-05-05T07:34:36.295Z,27.56
2023-05-05T07:35:36.303Z,27.77
2023-05-05T07:36:36.420Z,29.16
2023-05-05T07:37:36.289Z,27.73
2023-05-05T07:38:36.335Z,27.41
2023-05-05T07:39:36.255Z,16.19
2023-05-05T07:40:36.251Z,24.54
2023-05-05T07:41:36.258Z,0.00
2023-05-05T07:42:36.586Z,7.98
2023-05-05T07:43:36.201Z,9.68
2023-05-05T07:44:36.270Z,15.36
2023-05-05T07:45:36.243Z,18.72
2023-05-05T07:46:36.475Z,4.96
2023-05-05T07:47:36.661Z,0.00
2023-05-05T07:48:36.193Z,0.00
2023-05-05T07:49:36.241Z,3.15
2023-05-05T07:50:36.220Z,25.00
2023-05-05T07:51:36.159Z,36.75
2023-05-05T07:52:46.912Z,42.35
2023-05-05T07:53:37.177Z,42.55
2023-05-05T07:54:36.236Z,43.92
2023-05-05T07:55:36.144Z,47.47
2023-05-05T07:56:36.184Z,51.45
2023-05-05T07:57:36.153Z,56.17
2023-05-05T07:58:36.157Z,56.74
2023-05-05T07:59:36.131Z,57.81
2023-05-05T08:00:36.156Z,59.51
2023-05-05T08:01:36.127Z,60.76
2023-05-05T08:02:36.217Z,59.94
2023-05-05T08:03:36.272Z,57.84
2023-05-05T08:04:36.209Z,60.05
2023-05-05T08:05:36.065Z,60.74
2023-05-05T08:06:36.066Z,58.07
2023-05-05T08:07:36.071Z,61.37
2023-05-05T08:08:36.073Z,62.25
2023-05-05T08:09:36.058Z,61.93
2023-05-05T08:10:36.047Z,64.91
2023-05-05T08:11:36.056Z,62.38
2023-05-05T08:12:36.119Z,64.80
2023-05-05T08:13:36.067Z,66.84
2023-05-05T08:14:36.099Z,70.61
2023-05-05T08:15:36.109Z,73.12
2023-05-05T08:16:36.339Z,76.05
2023-05-05T08:17:36.279Z,79.29
2023-05-05T08:18:36.340Z,79.47
2023-05-05T08:19:36.384Z,76.41
2023-05-05T08:20:36.435Z,78.07
2023-05-05T08:21:36.470Z,77.95
2023-05-05T08:22:36.565Z,77.67
2023-05-05T08:23:36.580Z,80.33
2023-05-05T08:24:36.641Z,79.32
2023-05-05T08:25:36.701Z,80.77
2023-05-05T08:26:36.827Z,79.65
2023-05-05T08:27:36.792Z,81.06
2023-05-05T08:28:36.820Z,81.83
2023-05-05T08:29:36.918Z,78.51
2023-05-05T08:30:36.914Z,80.03
2023-05-05T08:31:36.999Z,78.72
2023-05-05T08:32:37.055Z,76.85
2023-05-05T08:33:37.050Z,74.87
2023-05-05T08:34:37.135Z,72.70
2023-05-05T08:35:37.272Z,61.98
2023-05-05T08:36:37.228Z,60.74
2023-05-05T08:37:37.641Z,67.02
2023-05-05T08:38:37.345Z,73.28
2023-05-05T08:39:37.412Z,72.16
2023-05-05T08:40:37.420Z,68.98
2023-05-05T08:41:37.503Z,74.22
2023-05-05T08:42:39.150Z,70.26
2023-05-05T08:43:37.582Z,79.43
2023-05-05T08:44:37.625Z,80.94
2023-05-05T08:45:37.682Z,76.80
2023-05-05T08:46:37.705Z,88.47
2023-05-05T08:47:37.824Z,93.30
2023-05-05T08:48:37.777Z,92.69
2023-05-05T08:49:37.839Z,93.14
2023-05-05T08:50:37.875Z,96.80
2023-05-05T08:51:37.880Z,104.89
2023-05-05T08:52:38.189Z,113.51
2023-05-05T08:53:37.934Z,105.17
2023-05-05T08:54:37.998Z,98.21
2023-05-05T08:55:37.983Z,84.20
2023-05-05T08:56:38.026Z,72.09
2023-05-05T08:57:38.055Z,81.93
2023-05-05T08:58:38.138Z,91.54
2023-05-05T08:59:38.061Z,100.96
2023-05-05T09:00:38.054Z,108.40
2023-05-05T09:01:38.194Z,113.94
2023-05-05T09:02:38.220Z,123.13
2023-05-05T09:03:38.265Z,128.77
2023-05-05T09:04:38.251Z,132.85
2023-05-05T09:05:38.287Z,136.48
2023-05-05T09:06:38.387Z,141.89
2023-05-05T09:07:38.604Z,146.81
2023-05-05T09:08:38.454Z,148.83
2023-05-05T09:09:38.491Z,154.48
2023-05-05T09:10:38.498Z,155.60
2023-05-05T09:11:38.561Z,154.24
2023-05-05T09:12:38.614Z,160.54
2023-05-05T09:13:38.594Z,165.91
2023-05-05T09:14:38.631Z,170.74
2023-05-05T09:15:38.620Z,175.82
2023-05-05T09:16:38.759Z,179.10
2023-05-05T09:17:38.747Z,180.13
2023-05-05T09:18:38.682Z,182.20
2023-05-05T09:19:38.696Z,183.56
2023-05-05T09:20:38.672Z,185.00
2023-05-05T09:21:38.724Z,188.24
2023-05-05T09:22:39.156Z,189.33
2023-05-05T09:23:38.716Z,189.86
2023-05-05T09:24:38.788Z,191.86
2023-05-05T09:25:38.822Z,191.78
2023-05-05T09:26:38.803Z,193.56
2023-05-05T09:27:39.136Z,196.15
2023-05-05T09:28:38.865Z,199.37
2023-05-05T09:29:38.830Z,202.15
2023-05-05T09:30:38.936Z,205.01
2023-05-05T09:31:38.962Z,206.66
2023-05-05T09:32:39.011Z,208.44
2023-05-05T09:33:39.020Z,208.66
2023-05-05T09:34:39.074Z,210.53
2023-05-05T09:35:39.668Z,211.33
2023-05-05T09:36:39.185Z,213.69
2023-05-05T09:37:39.649Z,215.78
2023-05-05T09:38:39.278Z,215.53
2023-05-05T09:39:39.345Z,224.22
2023-05-05T09:40:39.393Z,224.83
2023-05-05T09:41:39.532Z,216.27
2023-05-05T09:42:39.629Z,212.47
2023-05-05T09:43:39.524Z,216.28
2023-05-05T09:44:39.508Z,219.15
2023-05-05T09:45:39.544Z,220.45
2023-05-05T09:46:39.704Z,218.39
2023-05-05T09:47:39.654Z,220.93
2023-05-05T09:48:39.616Z,219.40
2023-05-05T09:49:39.736Z,215.55
2023-05-05T09:50:39.607Z,216.19
2023-05-05T09:51:39.608Z,217.84
2023-05-05T09:52:39.673Z,218.05
2023-05-05T09:53:39.680Z,218.40
2023-05-05T09:54:39.691Z,219.11
2023-05-05T09:55:39.703Z,219.92
2023-05-05T09:56:39.753Z,219.56
2023-05-05T09:57:40.171Z,220.58
2023-05-05T09:58:39.829Z,220.29
2023-05-05T09:59:39.802Z,219.52
2023-05-05T10:00:39.858Z,219.73
2023-05-05T10:01:39.875Z,218.83
2023-05-05T10:02:39.981Z,218.33
2023-05-05T10:03:39.913Z,217.13
2023-05-05T10:04:39.962Z,217.30
2023-05-05T10:05:40.003Z,218.12
2023-05-05T10:06:40.024Z,219.12
2023-05-05T10:07:40.136Z,220.72
2023-05-05T10:08:40.077Z,219.48
2023-05-05T10:09:40.081Z,219.46
2023-05-05T10:10:40.099Z,219.97
2023-05-05T10:11:40.140Z,219.67
2023-05-05T10:12:40.286Z,219.36
2023-05-05T10:13:40.212Z,219.19
2023-05-05T10:14:40.269Z,219.22
2023-05-05T10:15:40.282Z,219.07
2023-05-05T10:16:40.417Z,218.97
2023-05-05T10:17:43.960Z,219.32
2023-05-05T10:18:41.520Z,219.38
2023-05-05T10:19:40.393Z,219.50
2023-05-05T10:20:40.325Z,220.01
2023-05-05T10:21:41.956Z,220.49
2023-05-05T10:22:40.434Z,221.16
2023-05-05T10:23:40.383Z,222.20
2023-05-05T10:24:40.424Z,222.04
2023-05-05T10:25:40.418Z,221.27
2023-05-05T10:26:40.509Z,221.56
2023-05-05T10:27:40.530Z,221.75
2023-05-05T10:28:40.556Z,221.14
2023-05-05T10:29:40.639Z,220.32
2023-05-05T10:30:40.680Z,220.20
2023-05-05T10:31:40.696Z,219.30
2023-05-05T10:32:53.951Z,219.05
2023-05-05T10:33:42.363Z,219.11
2023-05-05T10:34:40.842Z,219.20
2023-05-05T10:35:40.694Z,219.59
2023-05-05T10:36:40.685Z,219.96
2023-05-05T10:37:40.680Z,217.00
2023-05-05T10:38:40.757Z,222.66
2023-05-05T10:39:40.711Z,219.63
2023-05-05T10:40:40.682Z,223.41
2023-05-05T10:41:40.652Z,220.79
2023-05-05T10:42:40.664Z,217.36
2023-05-05T10:43:40.685Z,224.89
2023-05-05T10:44:40.633Z,223.13
2023-05-05T10:45:40.803Z,223.91
2023-05-05T10:46:40.833Z,221.64
2023-05-05T10:47:40.690Z,217.26
2023-05-05T10:48:40.780Z,216.89
2023-05-05T10:49:40.689Z,207.66
2023-05-05T10:50:40.847Z,191.16
2023-05-05T10:51:41.304Z,196.00
2023-05-05T10:52:40.833Z,201.03
2023-05-05T10:53:40.842Z,204.27
2023-05-05T10:54:40.899Z,200.13
2023-05-05T10:55:40.989Z,198.28
2023-05-05T10:56:40.991Z,189.63
2023-05-05T10:57:41.068Z,189.10
2023-05-05T10:58:58.377Z,195.27
2023-05-05T10:59:42.074Z,195.57
2023-05-05T11:00:41.096Z,196.55
2023-05-05T11:01:41.064Z,199.42
2023-05-05T11:02:41.100Z,201.16
2023-05-05T11:03:41.146Z,199.66
2023-05-05T11:04:41.031Z,190.97
2023-05-05T11:05:41.041Z,215.17
2023-05-05T11:06:41.095Z,192.46
2023-05-05T11:07:41.021Z,187.02
2023-05-05T11:08:41.003Z,187.14
2023-05-05T11:09:41.041Z,185.77
2023-05-05T11:10:41.011Z,184.81
2023-05-05T11:11:41.019Z,193.39
2023-05-05T11:12:40.978Z,191.70
2023-05-05T11:13:41.018Z,198.00
2023-05-05T11:14:41.058Z,202.00
2023-05-05T11:15:41.014Z,207.56
2023-05-05T11:16:41.082Z,216.23
2023-05-05T11:17:41.146Z,217.59
2023-05-05T11:18:41.083Z,222.91
2023-05-05T11:19:41.075Z,228.70
2023-05-05T11:20:41.084Z,231.92
2023-05-05T11:21:41.082Z,236.74
2023-05-05T11:22:41.124Z,240.42
2023-05-05T11:23:41.133Z,246.17
2023-05-05T11:24:41.125Z,249.44
2023-05-05T11:25:41.327Z,249.74
2023-05-05T11:26:41.156Z,249.88
2023-05-05T11:27:41.162Z,250.00
2023-05-05T11:28:41.759Z,250.07
2023-05-05T11:29:41.235Z,250.00
2023-05-05T11:30:41.336Z,249.95
2023-05-05T11:31:41.586Z,250.00
2023-05-05T11:32:41.406Z,250.06
2023-05-05T11:33:42.050Z,249.69
2023-05-05T11:34:41.338Z,249.74
2023-05-05T11:35:41.354Z,247.24
2023-05-05T11:36:41.346Z,246.58
2023-05-05T11:37:41.415Z,245.13
2023-05-05T11:38:41.503Z,243.86
2023-05-05T11:39:41.463Z,244.09
2023-05-05T11:40:41.473Z,244.04
2023-05-05T11:41:41.485Z,244.30
2023-05-05T11:42:41.500Z,245.61
2023-05-05T11:43:41.560Z,242.74
2023-05-05T11:44:41.590Z,242.63
2023-05-05T11:45:41.646Z,238.55
2023-05-05T11:46:41.780Z,231.91
2023-05-05T11:47:41.750Z,232.17
2023-05-05T11:48:41.778Z,232.01
2023-05-05T11:49:41.801Z,232.67
2023-05-05T11:50:41.862Z,231.23
2023-05-05T11:51:41.881Z,231.94
2023-05-05T11:52:41.929Z,230.43
2023-05-05T11:53:42.005Z,229.07
2023-05-05T11:54:42.124Z,228.97
2023-05-05T11:55:42.131Z,228.93
2023-05-05T11:56:42.133Z,229.96
2023-05-05T11:57:42.194Z,231.79
2023-05-05T11:58:42.243Z,233.02
2023-05-05T11:59:42.329Z,233.59
2023-05-05T12:00:42.357Z,233.82
2023-05-05T12:01:42.442Z,232.95
2023-05-05T12:02:42.561Z,231.73
2023-05-05T12:03:42.573Z,230.06
2023-05-05T12:04:43.338Z,230.72
2023-05-05T12:05:42.735Z,231.13
2023-05-05T12:06:42.670Z,231.93
2023-05-05T12:07:42.708Z,230.82
2023-05-05T12:08:42.775Z,229.43
2023-05-05T12:09:42.829Z,226.20
2023-05-05T12:10:42.904Z,225.08
2023-05-05T12:11:42.908Z,223.21
2023-05-05T12:12:42.992Z,221.47
2023-05-05T12:13:43.007Z,221.23
2023-05-05T12:14:43.033Z,219.19
2023-05-05T12:15:43.102Z,218.76
2023-05-05T12:16:43.187Z,219.49
2023-05-05T12:17:43.236Z,220.26
2023-05-05T12:18:43.204Z,220.64
2023-05-05T12:19:43.275Z,219.77
2023-05-05T12:20:43.319Z,217.10
2023-05-05T12:21:43.384Z,217.08
2023-05-05T12:22:43.402Z,217.48
2023-05-05T12:23:43.473Z,217.28
2023-05-05T12:24:43.476Z,218.36
2023-05-05T12:25:43.524Z,219.87
2023-05-05T12:26:43.665Z,220.53
2023-05-05T12:27:43.611Z,219.75
2023-05-05T12:28:43.640Z,219.01
2023-05-05T12:29:43.694Z,217.83
2023-05-05T12:30:43.839Z,216.62
2023-05-05T12:31:43.801Z,217.08
2023-05-05T12:32:43.961Z,215.48
2023-05-05T12:33:43.842Z,213.92
2023-05-05T12:34:43.884Z,213.34
2023-05-05T12:35:43.966Z,213.77
2023-05-05T12:36:44.014Z,213.25
2023-05-05T12:37:44.081Z,210.90
2023-05-05T12:38:44.098Z,208.25
2023-05-05T12:39:44.144Z,207.23
2023-05-05T12:40:44.206Z,204.41
2023-05-05T12:41:44.251Z,202.33
2023-05-05T12:42:46.296Z,201.33